sensor_id;sensor_type;location;lat;lon;timestamp;temperature;humidity
75262;DHT22;63859;51.064;4.580;2023-02-01T00:02:24;6.00;99.90
75262;DHT22;63859;51.064;4.580;2023-02-01T00:04:50;5.90;99.90
75262;DHT22;63859;51.064;4.580;2023-02-01T00:07:15;6.00;99.90
75262;DHT22;63859;51.064;4.580;2023-02-01T00:09:41;6.00;99.90
75262;DHT22;63859;51.064;4.580;2023-02-01T00:12:06;6.00;99.90
75262;DHT22;63859;51.064;4.580;2023-02-01T00:14:32;6.00;99.90
75262;DHT22;63859;51.064;4.580;2023-02-01T00:17:04;6.00;99.90
75262;DHT22;63859;51.064;4.580;2023-02-01T00:19:30;6.00;99.90
75262;DHT22;63859;51.064;4.580;2023-02-01T00:21:56;6.10;99.90
75262;DHT22;63859;51.064;4.580;2023-02-01T00:24:21;6.10;99.90
75262;DHT22;63859;51.064;4.580;2023-02-01T00:26:47;6.10;99.90
75262;DHT22;63859;51.064;4.580;2023-02-01T00:29:18;6.10;99.90
75262;DHT22;63859;51.064;4.580;2023-02-01T00:31:44;6.10;99.90
75262;DHT22;63859;51.064;4.580;2023-02-01T00:34:16;6.10;99.90
75262;DHT22;63859;51.064;4.580;2023-02-01T00:36:42;6.30;99.90
75262;DHT22;63859;51.064;4.580;2023-02-01T00:39:09;6.10;99.90
75262;DHT22;63859;51.064;4.580;2023-02-01T00:41:35;6.20;99.90
75262;DHT22;63859;51.064;4.580;2023-02-01T00:44:00;6.20;99.90
75262;DHT22;63859;51.064;4.580;2023-02-01T00:46:27;6.20;99.90
75262;DHT22;63859;51.064;4.580;2023-02-01T00:48:53;6.20;99.90
75262;DHT22;63859;51.064;4.580;2023-02-01T00:51:22;6.10;99.90
75262;DHT22;63859;51.064;4.580;2023-02-01T00:53:48;6.20;99.90
75262;DHT22;63859;51.064;4.580;2023-02-01T00:56:14;6.20;99.90
75262;DHT22;63859;51.064;4.580;2023-02-01T00:58:41;6.20;99.90
75262;DHT22;63859;51.064;4.580;2023-02-01T01:01:11;6.30;99.90
75262;DHT22;63859;51.064;4.580;2023-02-01T01:03:40;6.30;99.90
75262;DHT22;63859;51.064;4.580;2023-02-01T01:06:08;6.30;99.90
75262;DHT22;63859;51.064;4.580;2023-02-01T01:08:34;6.30;99.90
75262;DHT22;63859;51.064;4.580;2023-02-01T01:11:08;6.30;99.90
75262;DHT22;63859;51.064;4.580;2023-02-01T01:13:35;6.20;99.90
75262;DHT22;63859;51.064;4.580;2023-02-01T01:16:01;6.30;99.90
75262;DHT22;63859;51.064;4.580;2023-02-01T01:18:28;6.30;99.90
75262;DHT22;63859;51.064;4.580;2023-02-01T01:20:54;6.20;99.90
75262;DHT22;63859;51.064;4.580;2023-02-01T01:23:20;6.20;99.90
75262;DHT22;63859;51.064;4.580;2023-02-01T01:25:46;6.20;99.90
75262;DHT22;63859;51.064;4.580;2023-02-01T01:28:11;6.20;99.90
75262;DHT22;63859;51.064;4.580;2023-02-01T01:30:37;6.20;99.90
75262;DHT22;63859;51.064;4.580;2023-02-01T01:33:02;6.10;99.90
75262;DHT22;63859;51.064;4.580;2023-02-01T01:35:30;6.10;99.90
75262;DHT22;63859;51.064;4.580;2023-02-01T01:37:56;6.10;99.90
75262;DHT22;63859;51.064;4.580;2023-02-01T01:40:22;6.10;99.90
75262;DHT22;63859;51.064;4.580;2023-02-01T01:42:47;6.10;99.90
75262;DHT22;63859;51.064;4.580;2023-02-01T01:45:28;6.00;99.90
75262;DHT22;63859;51.064;4.580;2023-02-01T01:47:57;6.00;99.90
75262;DHT22;63859;51.064;4.580;2023-02-01T01:50:33;6.00;99.90
75262;DHT22;63859;51.064;4.580;2023-02-01T01:53:01;6.10;99.90
75262;DHT22;63859;51.064;4.580;2023-02-01T01:55:33;6.10;99.90
75262;DHT22;63859;51.064;4.580;2023-02-01T01:58:03;6.10;99.90
75262;DHT22;63859;51.064;4.580;2023-02-01T02:00:31;6.00;99.90
75262;DHT22;63859;51.064;4.580;2023-02-01T02:03:37;6.00;99.90
75262;DHT22;63859;51.064;4.580;2023-02-01T02:06:09;6.00;99.90
75262;DHT22;63859;51.064;4.580;2023-02-01T02:08:39;6.00;99.90
75262;DHT22;63859;51.064;4.580;2023-02-01T02:11:04;6.00;99.90
75262;DHT22;63859;51.064;4.580;2023-02-01T02:13:36;6.00;99.90
75262;DHT22;63859;51.064;4.580;2023-02-01T02:21:35;5.80;99.90
75262;DHT22;63859;51.064;4.580;2023-02-01T02:27:03;5.80;99.90
75262;DHT22;63859;51.064;4.580;2023-02-01T02:32:50;5.80;99.90
75262;DHT22;63859;51.064;4.580;2023-02-01T02:40:40;5.70;99.90
75262;DHT22;63859;51.064;4.580;2023-02-01T02:43:31;5.70;99.90
75262;DHT22;63859;51.064;4.580;2023-02-01T02:46:33;5.60;99.90
75262;DHT22;63859;51.064;4.580;2023-02-01T02:49:26;5.60;99.90
75262;DHT22;63859;51.064;4.580;2023-02-01T02:52:24;5.50;99.90
75262;DHT22;63859;51.064;4.580;2023-02-01T02:55:09;5.50;99.90
75262;DHT22;63859;51.064;4.580;2023-02-01T02:57:40;5.40;99.90
75262;DHT22;63859;51.064;4.580;2023-02-01T03:00:32;5.40;99.90
75262;DHT22;63859;51.064;4.580;2023-02-01T03:03:17;5.40;99.90
75262;DHT22;63859;51.064;4.580;2023-02-01T03:06:01;5.40;99.90
75262;DHT22;63859;51.064;4.580;2023-02-01T03:08:28;5.40;99.90
75262;DHT22;63859;51.064;4.580;2023-02-01T03:13:43;5.30;99.90
75262;DHT22;63859;51.064;4.580;2023-02-01T03:16:24;5.30;99.90
75262;DHT22;63859;51.064;4.580;2023-02-01T03:22:02;5.30;99.90
75262;DHT22;63859;51.064;4.580;2023-02-01T03:24:33;5.30;99.90
75262;DHT22;63859;51.064;4.580;2023-02-01T03:30:03;5.30;99.90
75262;DHT22;63859;51.064;4.580;2023-02-01T03:32:31;5.30;99.90
75262;DHT22;63859;51.064;4.580;2023-02-01T03:35:18;5.30;99.90
75262;DHT22;63859;51.064;4.580;2023-02-01T03:37:47;5.30;99.90
75262;DHT22;63859;51.064;4.580;2023-02-01T03:40:15;5.30;99.90
75262;DHT22;63859;51.064;4.580;2023-02-01T03:42:48;5.30;99.90
75262;DHT22;63859;51.064;4.580;2023-02-01T03:45:38;5.30;99.90
75262;DHT22;63859;51.064;4.580;2023-02-01T03:48:09;5.20;99.90
75262;DHT22;63859;51.064;4.580;2023-02-01T03:50:40;5.30;99.90
75262;DHT22;63859;51.064;4.580;2023-02-01T03:53:11;5.20;99.90
75262;DHT22;63859;51.064;4.580;2023-02-01T03:55:40;5.20;99.90
75262;DHT22;63859;51.064;4.580;2023-02-01T03:58:15;5.30;99.90
75262;DHT22;63859;51.064;4.580;2023-02-01T04:00:54;5.20;99.90
75262;DHT22;63859;51.064;4.580;2023-02-01T04:03:20;5.20;99.90
75262;DHT22;63859;51.064;4.580;2023-02-01T04:05:47;5.30;99.90
75262;DHT22;63859;51.064;4.580;2023-02-01T04:08:13;5.20;99.90
75262;DHT22;63859;51.064;4.580;2023-02-01T04:10:39;5.30;99.90
75262;DHT22;63859;51.064;4.580;2023-02-01T04:13:04;5.20;99.90
75262;DHT22;63859;51.064;4.580;2023-02-01T04:15:30;5.20;99.90
75262;DHT22;63859;51.064;4.580;2023-02-01T04:17:56;5.20;99.90
75262;DHT22;63859;51.064;4.580;2023-02-01T04:20:21;5.20;99.90
75262;DHT22;63859;51.064;4.580;2023-02-01T04:22:47;5.20;99.90
75262;DHT22;63859;51.064;4.580;2023-02-01T04:25:12;5.20;99.90
75262;DHT22;63859;51.064;4.580;2023-02-01T04:27:38;5.20;99.90
75262;DHT22;63859;51.064;4.580;2023-02-01T04:30:04;5.20;99.90
75262;DHT22;63859;51.064;4.580;2023-02-01T04:32:30;5.20;99.90
75262;DHT22;63859;51.064;4.580;2023-02-01T04:34:56;5.20;99.90
75262;DHT22;63859;51.064;4.580;2023-02-01T04:37:21;5.20;99.90
75262;DHT22;63859;51.064;4.580;2023-02-01T04:39:47;5.10;99.90
75262;DHT22;63859;51.064;4.580;2023-02-01T04:42:13;5.20;99.90
75262;DHT22;63859;51.064;4.580;2023-02-01T04:44:38;5.10;99.90
75262;DHT22;63859;51.064;4.580;2023-02-01T04:47:07;5.10;99.90
75262;DHT22;63859;51.064;4.580;2023-02-01T04:49:32;5.10;99.90
75262;DHT22;63859;51.064;4.580;2023-02-01T04:51:59;5.10;99.90
75262;DHT22;63859;51.064;4.580;2023-02-01T04:54:24;5.10;99.90
75262;DHT22;63859;51.064;4.580;2023-02-01T04:56:50;5.10;99.90
75262;DHT22;63859;51.064;4.580;2023-02-01T04:59:16;5.10;99.90
75262;DHT22;63859;51.064;4.580;2023-02-01T05:01:42;5.10;99.90
75262;DHT22;63859;51.064;4.580;2023-02-01T05:04:07;5.10;99.90
75262;DHT22;63859;51.064;4.580;2023-02-01T05:06:33;5.10;99.90
75262;DHT22;63859;51.064;4.580;2023-02-01T05:08:58;5.10;99.90
75262;DHT22;63859;51.064;4.580;2023-02-01T05:11:24;5.10;99.90
75262;DHT22;63859;51.064;4.580;2023-02-01T05:14:08;5.10;99.90
75262;DHT22;63859;51.064;4.580;2023-02-01T05:16:35;5.10;99.90
75262;DHT22;63859;51.064;4.580;2023-02-01T05:19:01;5.10;99.90
75262;DHT22;63859;51.064;4.580;2023-02-01T05:21:26;5.10;99.90
75262;DHT22;63859;51.064;4.580;2023-02-01T05:23:52;5.10;99.90
75262;DHT22;63859;51.064;4.580;2023-02-01T05:26:41;5.00;99.90
75262;DHT22;63859;51.064;4.580;2023-02-01T05:29:08;5.00;99.90
75262;DHT22;63859;51.064;4.580;2023-02-01T05:31:35;5.10;99.90
75262;DHT22;63859;51.064;4.580;2023-02-01T05:34:01;5.10;99.90
75262;DHT22;63859;51.064;4.580;2023-02-01T05:36:26;5.00;99.90
75262;DHT22;63859;51.064;4.580;2023-02-01T05:38:52;4.80;99.90
75262;DHT22;63859;51.064;4.580;2023-02-01T05:41:18;4.90;99.90
75262;DHT22;63859;51.064;4.580;2023-02-01T05:43:43;4.90;99.90
75262;DHT22;63859;51.064;4.580;2023-02-01T05:46:09;4.90;99.90
75262;DHT22;63859;51.064;4.580;2023-02-01T05:48:42;5.00;99.90
75262;DHT22;63859;51.064;4.580;2023-02-01T05:51:08;5.00;99.90
75262;DHT22;63859;51.064;4.580;2023-02-01T05:53:34;5.00;99.90
75262;DHT22;63859;51.064;4.580;2023-02-01T05:56:00;5.00;99.90
75262;DHT22;63859;51.064;4.580;2023-02-01T05:58:26;4.90;99.90
75262;DHT22;63859;51.064;4.580;2023-02-01T06:00:51;5.00;99.90
75262;DHT22;63859;51.064;4.580;2023-02-01T06:03:17;5.00;99.90
75262;DHT22;63859;51.064;4.580;2023-02-01T06:05:44;4.90;99.90
75262;DHT22;63859;51.064;4.580;2023-02-01T06:08:10;4.90;99.90
75262;DHT22;63859;51.064;4.580;2023-02-01T06:10:36;5.00;99.90
75262;DHT22;63859;51.064;4.580;2023-02-01T06:13:01;4.90;99.90
75262;DHT22;63859;51.064;4.580;2023-02-01T06:15:29;4.90;99.90
75262;DHT22;63859;51.064;4.580;2023-02-01T06:17:54;4.80;99.90
75262;DHT22;63859;51.064;4.580;2023-02-01T06:20:20;4.80;99.90
75262;DHT22;63859;51.064;4.580;2023-02-01T06:22:46;4.80;99.90
75262;DHT22;63859;51.064;4.580;2023-02-01T06:25:11;4.80;99.90
75262;DHT22;63859;51.064;4.580;2023-02-01T06:27:37;4.80;99.90
75262;DHT22;63859;51.064;4.580;2023-02-01T06:30:04;4.80;99.90
75262;DHT22;63859;51.064;4.580;2023-02-01T06:32:30;4.70;99.90
75262;DHT22;63859;51.064;4.580;2023-02-01T06:34:55;4.70;99.90
75262;DHT22;63859;51.064;4.580;2023-02-01T06:37:22;4.80;99.90
75262;DHT22;63859;51.064;4.580;2023-02-01T06:39:50;4.70;99.90
75262;DHT22;63859;51.064;4.580;2023-02-01T06:42:16;4.70;99.90
75262;DHT22;63859;51.064;4.580;2023-02-01T06:44:41;4.70;99.90
75262;DHT22;63859;51.064;4.580;2023-02-01T06:47:07;4.80;99.90
75262;DHT22;63859;51.064;4.580;2023-02-01T06:49:33;4.80;99.90
75262;DHT22;63859;51.064;4.580;2023-02-01T06:51:59;4.70;99.90
75262;DHT22;63859;51.064;4.580;2023-02-01T06:54:27;4.80;99.90
75262;DHT22;63859;51.064;4.580;2023-02-01T06:56:53;4.70;99.90
75262;DHT22;63859;51.064;4.580;2023-02-01T06:59:19;4.70;99.90
75262;DHT22;63859;51.064;4.580;2023-02-01T07:01:45;4.70;99.90
75262;DHT22;63859;51.064;4.580;2023-02-01T07:04:11;4.70;99.90
75262;DHT22;63859;51.064;4.580;2023-02-01T07:06:37;4.70;99.90
75262;DHT22;63859;51.064;4.580;2023-02-01T07:09:03;4.70;99.90
75262;DHT22;63859;51.064;4.580;2023-02-01T07:11:29;4.70;99.90
75262;DHT22;63859;51.064;4.580;2023-02-01T07:13:56;4.70;99.90
75262;DHT22;63859;51.064;4.580;2023-02-01T07:16:21;4.60;99.90
75262;DHT22;63859;51.064;4.580;2023-02-01T07:18:49;4.70;99.90
75262;DHT22;63859;51.064;4.580;2023-02-01T07:21:14;4.60;99.90
75262;DHT22;63859;51.064;4.580;2023-02-01T07:23:40;4.70;99.90
75262;DHT22;63859;51.064;4.580;2023-02-01T07:26:07;4.60;99.90
75262;DHT22;63859;51.064;4.580;2023-02-01T07:28:35;4.60;99.90
75262;DHT22;63859;51.064;4.580;2023-02-01T07:31:06;4.70;99.90
75262;DHT22;63859;51.064;4.580;2023-02-01T07:33:32;4.60;99.90
75262;DHT22;63859;51.064;4.580;2023-02-01T07:36:01;4.70;99.90
75262;DHT22;63859;51.064;4.580;2023-02-01T07:38:27;4.70;99.90
75262;DHT22;63859;51.064;4.580;2023-02-01T07:41:00;4.70;99.90
75262;DHT22;63859;51.064;4.580;2023-02-01T07:43:27;4.70;99.90
75262;DHT22;63859;51.064;4.580;2023-02-01T07:45:53;4.70;99.90
75262;DHT22;63859;51.064;4.580;2023-02-01T07:48:20;4.70;99.90
75262;DHT22;63859;51.064;4.580;2023-02-01T07:50:46;4.70;99.90
75262;DHT22;63859;51.064;4.580;2023-02-01T07:53:11;4.70;99.90
75262;DHT22;63859;51.064;4.580;2023-02-01T07:55:38;4.70;99.90
75262;DHT22;63859;51.064;4.580;2023-02-01T07:58:04;4.80;99.90
75262;DHT22;63859;51.064;4.580;2023-02-01T08:00:29;4.80;99.90
75262;DHT22;63859;51.064;4.580;2023-02-01T08:03:13;4.80;99.90
75262;DHT22;63859;51.064;4.580;2023-02-01T08:05:39;4.90;99.90
75262;DHT22;63859;51.064;4.580;2023-02-01T08:08:05;4.90;99.90
75262;DHT22;63859;51.064;4.580;2023-02-01T08:10:31;4.90;99.90
75262;DHT22;63859;51.064;4.580;2023-02-01T08:13:00;4.90;99.90
75262;DHT22;63859;51.064;4.580;2023-02-01T08:15:27;5.00;99.90
75262;DHT22;63859;51.064;4.580;2023-02-01T08:17:53;5.00;99.90
75262;DHT22;63859;51.064;4.580;2023-02-01T08:20:23;5.10;99.90
75262;DHT22;63859;51.064;4.580;2023-02-01T08:22:50;5.10;99.90
75262;DHT22;63859;51.064;4.580;2023-02-01T08:25:16;5.10;99.90
75262;DHT22;63859;51.064;4.580;2023-02-01T08:27:42;5.10;99.90
75262;DHT22;63859;51.064;4.580;2023-02-01T08:30:08;5.20;99.90
75262;DHT22;63859;51.064;4.580;2023-02-01T08:32:34;5.20;99.90
75262;DHT22;63859;51.064;4.580;2023-02-01T08:35:01;5.20;99.90
75262;DHT22;63859;51.064;4.580;2023-02-01T08:37:26;5.20;99.90
75262;DHT22;63859;51.064;4.580;2023-02-01T08:39:52;5.20;99.90
75262;DHT22;63859;51.064;4.580;2023-02-01T08:42:17;5.30;99.90
75262;DHT22;63859;51.064;4.580;2023-02-01T08:45:03;5.30;99.90
75262;DHT22;63859;51.064;4.580;2023-02-01T08:47:30;5.30;99.90
75262;DHT22;63859;51.064;4.580;2023-02-01T08:49:55;5.30;99.90
75262;DHT22;63859;51.064;4.580;2023-02-01T08:52:21;5.40;99.90
75262;DHT22;63859;51.064;4.580;2023-02-01T08:54:47;5.40;99.90
75262;DHT22;63859;51.064;4.580;2023-02-01T08:57:13;5.40;99.90
75262;DHT22;63859;51.064;4.580;2023-02-01T08:59:38;5.40;99.90
75262;DHT22;63859;51.064;4.580;2023-02-01T09:02:04;5.40;99.90
75262;DHT22;63859;51.064;4.580;2023-02-01T09:04:29;5.50;99.90
75262;DHT22;63859;51.064;4.580;2023-02-01T09:06:55;5.50;99.90
75262;DHT22;63859;51.064;4.580;2023-02-01T09:09:24;5.50;99.90
75262;DHT22;63859;51.064;4.580;2023-02-01T09:11:50;5.50;99.90
75262;DHT22;63859;51.064;4.580;2023-02-01T09:14:16;5.60;99.90
75262;DHT22;63859;51.064;4.580;2023-02-01T09:16:42;5.60;99.90
75262;DHT22;63859;51.064;4.580;2023-02-01T09:19:08;5.60;99.90
75262;DHT22;63859;51.064;4.580;2023-02-01T09:21:34;5.70;99.90
75262;DHT22;63859;51.064;4.580;2023-02-01T09:23:59;5.70;99.90
75262;DHT22;63859;51.064;4.580;2023-02-01T09:26:25;5.70;99.90
75262;DHT22;63859;51.064;4.580;2023-02-01T09:28:51;5.70;99.90
75262;DHT22;63859;51.064;4.580;2023-02-01T09:31:17;5.80;99.90
75262;DHT22;63859;51.064;4.580;2023-02-01T09:33:42;5.80;99.90
75262;DHT22;63859;51.064;4.580;2023-02-01T09:36:08;5.90;99.90
75262;DHT22;63859;51.064;4.580;2023-02-01T09:38:34;5.90;99.90
75262;DHT22;63859;51.064;4.580;2023-02-01T09:41:00;5.90;99.90
75262;DHT22;63859;51.064;4.580;2023-02-01T09:48:42;6.10;99.90
75262;DHT22;63859;51.064;4.580;2023-02-01T09:51:20;6.20;99.90
75262;DHT22;63859;51.064;4.580;2023-02-01T09:54:13;6.30;99.90
75262;DHT22;63859;51.064;4.580;2023-02-01T09:56:56;6.30;99.90
75262;DHT22;63859;51.064;4.580;2023-02-01T09:59:48;6.30;99.90
75262;DHT22;63859;51.064;4.580;2023-02-01T10:02:21;6.40;99.90
75262;DHT22;63859;51.064;4.580;2023-02-01T10:04:49;6.50;99.90
75262;DHT22;63859;51.064;4.580;2023-02-01T10:15:33;6.70;99.90
75262;DHT22;63859;51.064;4.580;2023-02-01T10:21:00;6.80;99.90
75262;DHT22;63859;51.064;4.580;2023-02-01T10:28:44;7.10;99.90
75262;DHT22;63859;51.064;4.580;2023-02-01T10:31:11;7.30;99.90
75262;DHT22;63859;51.064;4.580;2023-02-01T10:33:57;7.40;99.90
75262;DHT22;63859;51.064;4.580;2023-02-01T10:38:53;7.60;99.90
75262;DHT22;63859;51.064;4.580;2023-02-01T10:41:21;7.70;99.90
75262;DHT22;63859;51.064;4.580;2023-02-01T10:43:56;7.80;99.90
75262;DHT22;63859;51.064;4.580;2023-02-01T10:46:23;7.90;99.90
75262;DHT22;63859;51.064;4.580;2023-02-01T10:48:50;7.90;99.90
75262;DHT22;63859;51.064;4.580;2023-02-01T10:51:42;8.00;99.90
75262;DHT22;63859;51.064;4.580;2023-02-01T10:54:17;8.00;99.90
75262;DHT22;63859;51.064;4.580;2023-02-01T10:56:44;8.20;99.90
75262;DHT22;63859;51.064;4.580;2023-02-01T10:59:18;8.20;99.90
75262;DHT22;63859;51.064;4.580;2023-02-01T11:01:48;8.20;99.90
75262;DHT22;63859;51.064;4.580;2023-02-01T11:04:20;8.20;99.90
75262;DHT22;63859;51.064;4.580;2023-02-01T11:06:53;8.30;99.90
75262;DHT22;63859;51.064;4.580;2023-02-01T11:09:30;8.30;99.90
75262;DHT22;63859;51.064;4.580;2023-02-01T11:12:00;8.30;99.90
75262;DHT22;63859;51.064;4.580;2023-02-01T11:14:26;8.40;99.90
75262;DHT22;63859;51.064;4.580;2023-02-01T11:19:19;8.40;99.90
75262;DHT22;63859;51.064;4.580;2023-02-01T11:21:50;8.40;99.90
75262;DHT22;63859;51.064;4.580;2023-02-01T11:26:58;8.50;99.90
75262;DHT22;63859;51.064;4.580;2023-02-01T11:29:25;8.50;99.90
75262;DHT22;63859;51.064;4.580;2023-02-01T11:31:56;8.60;99.90
75262;DHT22;63859;51.064;4.580;2023-02-01T11:34:37;8.60;99.90
75262;DHT22;63859;51.064;4.580;2023-02-01T11:37:03;8.60;99.90
75262;DHT22;63859;51.064;4.580;2023-02-01T11:39:39;8.60;99.90
75262;DHT22;63859;51.064;4.580;2023-02-01T11:42:16;8.70;99.90
75262;DHT22;63859;51.064;4.580;2023-02-01T11:44:43;8.70;99.90
75262;DHT22;63859;51.064;4.580;2023-02-01T11:47:27;8.70;99.90
75262;DHT22;63859;51.064;4.580;2023-02-01T11:49:55;8.70;99.90
75262;DHT22;63859;51.064;4.580;2023-02-01T11:58:32;8.70;99.90
75262;DHT22;63859;51.064;4.580;2023-02-01T12:07:03;8.70;99.90
75262;DHT22;63859;51.064;4.580;2023-02-01T12:09:52;8.70;99.90
75262;DHT22;63859;51.064;4.580;2023-02-01T12:15:27;8.70;99.90
75262;DHT22;63859;51.064;4.580;2023-02-01T12:26:39;8.80;99.90
75262;DHT22;63859;51.064;4.580;2023-02-01T12:32:25;8.90;99.90
75262;DHT22;63859;51.064;4.580;2023-02-01T12:40:36;8.90;99.90
75262;DHT22;63859;51.064;4.580;2023-02-01T12:43:11;9.00;99.90
75262;DHT22;63859;51.064;4.580;2023-02-01T12:45:44;9.00;99.90
75262;DHT22;63859;51.064;4.580;2023-02-01T12:50:56;9.00;99.90
75262;DHT22;63859;51.064;4.580;2023-02-01T12:56:07;8.90;99.90
75262;DHT22;63859;51.064;4.580;2023-02-01T12:58:44;8.90;99.90
75262;DHT22;63859;51.064;4.580;2023-02-01T13:01:30;8.90;99.90
75262;DHT22;63859;51.064;4.580;2023-02-01T13:04:20;9.00;99.90
75262;DHT22;63859;51.064;4.580;2023-02-01T13:07:14;9.00;99.90
75262;DHT22;63859;51.064;4.580;2023-02-01T13:09:52;8.90;99.90
75262;DHT22;63859;51.064;4.580;2023-02-01T13:12:26;9.00;99.90
75262;DHT22;63859;51.064;4.580;2023-02-01T13:15:14;9.10;99.90
75262;DHT22;63859;51.064;4.580;2023-02-01T13:17:42;9.10;99.90
75262;DHT22;63859;51.064;4.580;2023-02-01T13:20:32;9.20;99.90
75262;DHT22;63859;51.064;4.580;2023-02-01T13:23:15;9.20;99.90
75262;DHT22;63859;51.064;4.580;2023-02-01T13:25:47;9.20;99.90
75262;DHT22;63859;51.064;4.580;2023-02-01T13:28:42;9.20;99.90
75262;DHT22;63859;51.064;4.580;2023-02-01T13:37:12;9.30;99.90
75262;DHT22;63859;51.064;4.580;2023-02-01T13:39:48;9.30;99.90
75262;DHT22;63859;51.064;4.580;2023-02-01T13:42:28;9.30;99.90
75262;DHT22;63859;51.064;4.580;2023-02-01T13:47:42;9.30;99.90
75262;DHT22;63859;51.064;4.580;2023-02-01T13:50:21;9.30;99.90
75262;DHT22;63859;51.064;4.580;2023-02-01T13:55:40;9.30;99.90
75262;DHT22;63859;51.064;4.580;2023-02-01T13:58:29;9.30;99.90
75262;DHT22;63859;51.064;4.580;2023-02-01T14:03:51;9.30;99.90
75262;DHT22;63859;51.064;4.580;2023-02-01T14:06:36;9.40;99.90
75262;DHT22;63859;51.064;4.580;2023-02-01T14:09:32;9.30;99.90
75262;DHT22;63859;51.064;4.580;2023-02-01T14:12:41;9.30;99.90
75262;DHT22;63859;51.064;4.580;2023-02-01T14:17:44;9.30;99.90
75262;DHT22;63859;51.064;4.580;2023-02-01T14:20:44;9.30;99.90
75262;DHT22;63859;51.064;4.580;2023-02-01T14:23:17;9.30;99.90
75262;DHT22;63859;51.064;4.580;2023-02-01T14:25:44;9.30;99.90
75262;DHT22;63859;51.064;4.580;2023-02-01T14:28:23;9.30;99.90
75262;DHT22;63859;51.064;4.580;2023-02-01T14:30:50;9.30;99.90
75262;DHT22;63859;51.064;4.580;2023-02-01T14:33:21;9.20;99.90
75262;DHT22;63859;51.064;4.580;2023-02-01T14:36:11;9.20;99.90
75262;DHT22;63859;51.064;4.580;2023-02-01T14:38:38;9.20;99.90
75262;DHT22;63859;51.064;4.580;2023-02-01T14:49:42;9.20;99.90
75262;DHT22;63859;51.064;4.580;2023-02-01T14:52:17;9.10;99.90
75262;DHT22;63859;51.064;4.580;2023-02-01T14:54:47;9.10;99.90
75262;DHT22;63859;51.064;4.580;2023-02-01T14:57:16;9.10;99.90
75262;DHT22;63859;51.064;4.580;2023-02-01T14:59:45;9.10;99.90
75262;DHT22;63859;51.064;4.580;2023-02-01T15:02:21;9.10;99.90
75262;DHT22;63859;51.064;4.580;2023-02-01T15:04:54;9.10;99.90
75262;DHT22;63859;51.064;4.580;2023-02-01T15:07:21;9.10;99.90
75262;DHT22;63859;51.064;4.580;2023-02-01T15:09:49;9.00;99.90
75262;DHT22;63859;51.064;4.580;2023-02-01T15:12:18;9.00;99.90
75262;DHT22;63859;51.064;4.580;2023-02-01T15:15:11;9.10;99.90
75262;DHT22;63859;51.064;4.580;2023-02-01T15:17:38;9.00;99.90
75262;DHT22;63859;51.064;4.580;2023-02-01T15:20:22;9.00;99.90
75262;DHT22;63859;51.064;4.580;2023-02-01T15:25:29;8.90;99.90
75262;DHT22;63859;51.064;4.580;2023-02-01T15:27:55;8.90;99.90
75262;DHT22;63859;51.064;4.580;2023-02-01T15:30:27;8.90;99.90
75262;DHT22;63859;51.064;4.580;2023-02-01T15:35:53;8.80;99.90
75262;DHT22;63859;51.064;4.580;2023-02-01T15:41:17;8.80;99.90
75262;DHT22;63859;51.064;4.580;2023-02-01T15:46:30;8.80;99.90
75262;DHT22;63859;51.064;4.580;2023-02-01T15:48:56;8.70;99.90
75262;DHT22;63859;51.064;4.580;2023-02-01T15:51:24;8.70;99.90
75262;DHT22;63859;51.064;4.580;2023-02-01T15:54:17;8.70;99.90
75262;DHT22;63859;51.064;4.580;2023-02-01T15:56:53;8.70;99.90
75262;DHT22;63859;51.064;4.580;2023-02-01T15:59:24;8.70;99.90
75262;DHT22;63859;51.064;4.580;2023-02-01T16:01:53;8.70;99.90
75262;DHT22;63859;51.064;4.580;2023-02-01T16:06:50;8.70;99.90
75262;DHT22;63859;51.064;4.580;2023-02-01T16:09:22;8.70;99.90
75262;DHT22;63859;51.064;4.580;2023-02-01T16:11:57;8.60;99.90
75262;DHT22;63859;51.064;4.580;2023-02-01T16:14:24;8.60;99.90
75262;DHT22;63859;51.064;4.580;2023-02-01T16:16:50;8.70;99.90
75262;DHT22;63859;51.064;4.580;2023-02-01T16:19:17;8.60;99.90
75262;DHT22;63859;51.064;4.580;2023-02-01T16:21:42;8.60;99.90
75262;DHT22;63859;51.064;4.580;2023-02-01T16:24:08;8.60;99.90
75262;DHT22;63859;51.064;4.580;2023-02-01T16:26:34;8.60;99.90
75262;DHT22;63859;51.064;4.580;2023-02-01T16:29:00;8.60;99.90
75262;DHT22;63859;51.064;4.580;2023-02-01T16:31:35;8.60;99.90
75262;DHT22;63859;51.064;4.580;2023-02-01T16:34:02;8.60;99.90
75262;DHT22;63859;51.064;4.580;2023-02-01T16:36:28;8.60;99.90
75262;DHT22;63859;51.064;4.580;2023-02-01T16:38:54;8.60;99.90
75262;DHT22;63859;51.064;4.580;2023-02-01T16:41:22;8.60;99.90
75262;DHT22;63859;51.064;4.580;2023-02-01T16:43:53;8.60;99.90
75262;DHT22;63859;51.064;4.580;2023-02-01T16:46:22;8.40;99.90
75262;DHT22;63859;51.064;4.580;2023-02-01T16:48:58;8.60;99.90
75262;DHT22;63859;51.064;4.580;2023-02-01T16:51:32;8.60;99.90
75262;DHT22;63859;51.064;4.580;2023-02-01T16:54:01;8.60;99.90
75262;DHT22;63859;51.064;4.580;2023-02-01T16:56:32;8.60;99.90
75262;DHT22;63859;51.064;4.580;2023-02-01T16:58:58;8.50;99.90
75262;DHT22;63859;51.064;4.580;2023-02-01T17:01:24;8.60;99.90
75262;DHT22;63859;51.064;4.580;2023-02-01T17:03:49;8.60;99.90
75262;DHT22;63859;51.064;4.580;2023-02-01T17:06:18;8.60;99.90
75262;DHT22;63859;51.064;4.580;2023-02-01T17:08:47;8.60;99.90
75262;DHT22;63859;51.064;4.580;2023-02-01T17:11:15;8.50;99.90
75262;DHT22;63859;51.064;4.580;2023-02-01T17:13:41;8.50;99.90
75262;DHT22;63859;51.064;4.580;2023-02-01T17:19:06;8.50;99.90
75262;DHT22;63859;51.064;4.580;2023-02-01T17:21:44;8.50;99.90
75262;DHT22;63859;51.064;4.580;2023-02-01T17:24:16;8.50;99.90
75262;DHT22;63859;51.064;4.580;2023-02-01T17:26:43;8.50;99.90
75262;DHT22;63859;51.064;4.580;2023-02-01T17:29:09;8.50;99.90
75262;DHT22;63859;51.064;4.580;2023-02-01T17:31:41;8.50;99.90
75262;DHT22;63859;51.064;4.580;2023-02-01T17:34:12;8.40;99.90
75262;DHT22;63859;51.064;4.580;2023-02-01T17:36:40;8.50;99.90
75262;DHT22;63859;51.064;4.580;2023-02-01T17:39:06;8.40;99.90
75262;DHT22;63859;51.064;4.580;2023-02-01T17:41:32;8.40;99.90
75262;DHT22;63859;51.064;4.580;2023-02-01T17:43:57;8.40;99.90
75262;DHT22;63859;51.064;4.580;2023-02-01T17:46:23;8.30;99.90
75262;DHT22;63859;51.064;4.580;2023-02-01T17:48:54;8.40;99.90
75262;DHT22;63859;51.064;4.580;2023-02-01T17:51:22;8.40;99.90
75262;DHT22;63859;51.064;4.580;2023-02-01T17:53:48;8.40;99.90
75262;DHT22;63859;51.064;4.580;2023-02-01T17:56:20;8.40;99.90
75262;DHT22;63859;51.064;4.580;2023-02-01T17:58:46;8.40;99.90
75262;DHT22;63859;51.064;4.580;2023-02-01T18:01:22;8.40;99.90
75262;DHT22;63859;51.064;4.580;2023-02-01T18:03:48;8.30;99.90
75262;DHT22;63859;51.064;4.580;2023-02-01T18:06:18;8.40;99.90
75262;DHT22;63859;51.064;4.580;2023-02-01T18:08:44;8.30;99.90
75262;DHT22;63859;51.064;4.580;2023-02-01T18:11:21;8.30;99.90
75262;DHT22;63859;51.064;4.580;2023-02-01T18:13:47;8.30;99.90
75262;DHT22;63859;51.064;4.580;2023-02-01T18:16:26;8.10;99.90
75262;DHT22;63859;51.064;4.580;2023-02-01T18:18:52;8.30;99.90
75262;DHT22;63859;51.064;4.580;2023-02-01T18:21:20;8.30;99.90